Oeiras, Brazil
Current Conditions -  °F | °C
As of 5:00 PM on Saturday 20 Dec 2014 (Local Time) from SBTE Reporting Station
Few Clouds Few Clouds  
Wind Chill: 95°   Ceiling: Unl
Heat Index: 97°   Visibility: 6mi
Dew Point: 64°   Wind: 2mph
Humidity: 36%   Direction: 240°WSW
Pressure: 29.74"   Gusts: NA
Location:  7.03°S, 42.13°W
Report Text: SBTE 202000Z 24002KT 9999 FEW030 35/18 Q1007
Loading
Personal Weather Stations






























Interactive Weather Map New forecast layout! Learn more

10-Day Weather Forecast

Advertisements
Track Severe Weather on mobile